createdAt,value
2018-12-08T00:00:11.685Z,12.90
2018-12-08T00:02:39.316Z,15.47
2018-12-08T00:05:06.810Z,12.47
2018-12-08T00:07:34.322Z,15.00
2018-12-08T00:10:01.887Z,15.57
2018-12-08T00:12:29.467Z,17.90
2018-12-08T00:14:57.058Z,16.40
2018-12-08T00:17:24.570Z,11.80
2018-12-08T00:19:52.087Z,12.30
2018-12-08T00:22:19.586Z,7.73
2018-12-08T00:24:47.092Z,15.20
2018-12-08T00:27:14.594Z,12.70
2018-12-08T00:29:42.102Z,15.33
2018-12-08T00:32:09.615Z,10.43
2018-12-08T00:34:37.132Z,14.87
2018-12-08T00:37:04.658Z,10.67
2018-12-08T00:39:32.167Z,15.63
2018-12-08T00:42:00.028Z,17.13
2018-12-08T00:44:27.544Z,12.43
2018-12-08T00:46:55.052Z,13.40
2018-12-08T00:49:22.558Z,14.10
2018-12-08T00:51:50.069Z,21.97
2018-12-08T00:54:17.578Z,16.00
2018-12-08T00:56:45.082Z,16.50
2018-12-08T00:59:12.593Z,20.47
2018-12-08T01:01:40.210Z,19.37
2018-12-08T01:04:07.744Z,17.17
2018-12-08T01:06:35.280Z,18.33
2018-12-08T01:09:02.898Z,19.20
2018-12-08T01:11:30.401Z,14.93
2018-12-08T01:13:57.916Z,22.70
2018-12-08T01:16:25.425Z,14.70
2018-12-08T01:18:52.928Z,18.37
2018-12-08T01:21:20.438Z,14.80
2018-12-08T01:23:47.958Z,19.60
2018-12-08T01:26:15.462Z,19.80
2018-12-08T01:28:42.973Z,15.73
2018-12-08T01:31:10.478Z,12.93
2018-12-08T01:33:37.990Z,13.33
2018-12-08T01:36:05.577Z,17.73
2018-12-08T01:38:33.084Z,15.50
2018-12-08T01:41:00.578Z,16.80
2018-12-08T01:43:28.094Z,14.50
2018-12-08T01:45:55.614Z,20.13
2018-12-08T01:48:23.138Z,20.37
2018-12-08T01:50:50.644Z,22.53
2018-12-08T01:53:18.162Z,14.33
2018-12-08T01:55:45.670Z,12.43
2018-12-08T01:58:13.288Z,14.73
2018-12-08T02:00:40.816Z,18.47
2018-12-08T02:03:08.410Z,16.40
2018-12-08T02:05:35.978Z,15.03
2018-12-08T02:08:03.476Z,18.00
2018-12-08T02:10:30.982Z,15.47
2018-12-08T02:12:58.496Z,16.53
2018-12-08T02:15:26.011Z,16.97
2018-12-08T02:17:53.534Z,20.73
2018-12-08T02:20:21.053Z,22.57
2018-12-08T02:22:48.551Z,18.83
2018-12-08T02:25:16.080Z,17.13
2018-12-08T02:27:43.585Z,19.80
2018-12-08T02:30:11.098Z,19.00
2018-12-08T02:32:38.625Z,11.20
2018-12-08T02:35:06.147Z,18.87
2018-12-08T02:37:33.670Z,13.60
2018-12-08T02:40:01.189Z,20.10
2018-12-08T02:42:28.716Z,13.90
2018-12-08T02:44:56.241Z,19.00
2018-12-08T02:47:23.777Z,19.10
2018-12-08T02:49:51.296Z,15.57
2018-12-08T02:52:19.290Z,20.90
2018-12-08T02:54:46.805Z,20.50
2018-12-08T02:57:14.373Z,18.07
2018-12-08T02:59:41.882Z,17.20
2018-12-08T03:02:09.397Z,21.83
2018-12-08T03:04:36.989Z,18.97
2018-12-08T03:07:04.501Z,15.57
2018-12-08T03:09:32.031Z,13.90
2018-12-08T03:11:59.559Z,17.13
2018-12-08T03:14:27.083Z,14.27
2018-12-08T03:16:54.585Z,17.30
2018-12-08T03:19:22.095Z,22.80
2018-12-08T03:21:49.693Z,19.07
2018-12-08T03:24:17.202Z,16.20
2018-12-08T03:26:44.711Z,20.90
2018-12-08T03:29:12.208Z,20.77
2018-12-08T03:31:39.760Z,23.93
2018-12-08T03:34:07.274Z,23.23
2018-12-08T03:36:34.792Z,19.00
2018-12-08T03:39:02.312Z,19.40
2018-12-08T03:41:29.817Z,15.77
2018-12-08T03:43:57.327Z,15.30
2018-12-08T03:46:24.993Z,14.17
2018-12-08T03:48:52.549Z,15.50
2018-12-08T03:51:20.059Z,17.80
2018-12-08T03:53:47.643Z,15.80
2018-12-08T03:56:15.307Z,15.60
2018-12-08T03:58:42.812Z,17.47
2018-12-08T04:01:10.329Z,12.50
2018-12-08T04:03:38.091Z,16.63
2018-12-08T04:06:05.633Z,14.37
2018-12-08T04:08:33.165Z,14.37
2018-12-08T04:11:00.677Z,19.80
2018-12-08T04:13:28.196Z,15.93
2018-12-08T04:15:55.800Z,14.57
2018-12-08T04:18:23.316Z,17.60
2018-12-08T04:20:50.822Z,13.87
2018-12-08T04:23:18.333Z,14.00
2018-12-08T04:25:45.843Z,11.33
2018-12-08T04:28:13.366Z,11.63
2018-12-08T04:30:40.873Z,14.50
2018-12-08T04:33:08.455Z,11.70
2018-12-08T04:35:35.976Z,13.47
2018-12-08T04:38:03.529Z,17.17
2018-12-08T04:40:31.164Z,16.00
2018-12-08T04:42:58.674Z,10.93
2018-12-08T04:45:26.176Z,15.80
2018-12-08T04:47:53.820Z,12.03
2018-12-08T04:50:21.331Z,14.17
2018-12-08T04:52:49.555Z,14.73
2018-12-08T04:55:17.168Z,13.90
2018-12-08T04:57:44.676Z,17.07
2018-12-08T05:00:12.197Z,11.00
2018-12-08T05:02:39.705Z,13.73
2018-12-08T05:05:07.228Z,16.47
2018-12-08T05:07:34.749Z,18.03
2018-12-08T05:10:02.261Z,19.53
2018-12-08T05:12:29.783Z,20.30
2018-12-08T05:14:57.295Z,12.17
2018-12-08T05:17:24.803Z,19.70
2018-12-08T05:19:52.321Z,19.67
2018-12-08T05:22:19.913Z,14.17
2018-12-08T05:24:47.421Z,25.13
2018-12-08T05:27:14.937Z,22.40
2018-12-08T05:29:42.459Z,23.33
2018-12-08T05:32:09.979Z,25.30
2018-12-08T05:34:37.482Z,22.67
2018-12-08T05:37:05.007Z,24.60
2018-12-08T05:39:32.519Z,24.00
2018-12-08T05:42:00.034Z,24.03
2018-12-08T05:44:27.558Z,26.73
2018-12-08T05:46:55.074Z,25.63
2018-12-08T05:49:22.673Z,26.90
2018-12-08T05:51:50.188Z,23.87
2018-12-08T05:54:17.722Z,24.10
2018-12-08T05:56:45.246Z,20.40
2018-12-08T05:59:12.759Z,18.67
2018-12-08T06:01:40.271Z,23.27
2018-12-08T06:04:07.847Z,18.30
2018-12-08T06:06:35.358Z,20.73
2018-12-08T06:09:03.240Z,20.50
2018-12-08T06:11:30.752Z,26.50
2018-12-08T06:13:58.257Z,18.87
2018-12-08T06:16:25.773Z,21.17
2018-12-08T06:18:53.292Z,16.47
2018-12-08T06:21:28.597Z,17.93
2018-12-08T06:23:56.105Z,16.90
2018-12-08T06:26:23.742Z,13.90
2018-12-08T06:28:51.321Z,21.50
2018-12-08T06:31:18.849Z,17.00
2018-12-08T06:33:46.349Z,20.57
2018-12-08T06:36:13.945Z,12.53
2018-12-08T06:38:41.504Z,19.40
2018-12-08T06:41:09.115Z,18.27
2018-12-08T06:43:36.627Z,15.40
2018-12-08T06:46:04.127Z,18.80
2018-12-08T06:48:31.647Z,20.87
2018-12-08T06:50:59.146Z,24.93
2018-12-08T06:53:26.657Z,16.80
2018-12-08T06:55:54.631Z,23.57
2018-12-08T06:58:22.130Z,17.23
2018-12-08T07:00:49.632Z,14.87
2018-12-08T07:03:17.204Z,22.37
2018-12-08T07:05:44.710Z,19.17
2018-12-08T07:08:12.226Z,19.67
2018-12-08T07:10:39.738Z,18.10
2018-12-08T07:13:07.247Z,20.67
2018-12-08T07:15:34.770Z,16.63
2018-12-08T07:18:02.310Z,18.83
2018-12-08T07:20:29.818Z,17.33
2018-12-08T07:22:57.340Z,17.10
2018-12-08T07:25:24.854Z,18.50
2018-12-08T07:27:52.398Z,21.57
2018-12-08T07:30:19.988Z,17.80
2018-12-08T07:32:47.514Z,17.57
2018-12-08T07:35:15.034Z,16.70
2018-12-08T07:37:42.696Z,17.83
2018-12-08T07:40:10.356Z,17.83
2018-12-08T07:42:38.106Z,20.87
2018-12-08T07:45:06.472Z,18.30
2018-12-08T07:47:34.036Z,18.77
2018-12-08T07:50:01.648Z,13.50
2018-12-08T07:52:29.168Z,12.20
2018-12-08T07:54:56.676Z,19.60
2018-12-08T07:57:24.241Z,17.57
2018-12-08T07:59:51.827Z,18.40
2018-12-08T08:02:19.360Z,16.47
2018-12-08T08:04:46.882Z,23.77
2018-12-08T08:07:14.396Z,23.23
2018-12-08T08:09:42.017Z,15.17
2018-12-08T08:12:09.536Z,14.17
2018-12-08T08:14:37.187Z,16.93
2018-12-08T08:17:04.717Z,24.60
2018-12-08T08:19:32.220Z,16.03
2018-12-08T08:21:59.776Z,16.83
2018-12-08T08:24:27.309Z,18.07
2018-12-08T08:26:54.832Z,16.20
2018-12-08T08:29:22.361Z,15.47
2018-12-08T08:31:49.879Z,24.73
2018-12-08T08:34:17.419Z,14.13
2018-12-08T08:36:44.936Z,14.43
2018-12-08T08:39:12.563Z,14.27
2018-12-08T08:41:40.276Z,11.37
2018-12-08T08:44:07.863Z,16.70
2018-12-08T08:46:35.397Z,18.80
2018-12-08T08:49:02.909Z,13.70
2018-12-08T08:51:30.421Z,17.30
2018-12-08T08:53:57.935Z,13.90
2018-12-08T08:56:25.453Z,15.50
2018-12-08T08:58:52.979Z,14.93
2018-12-08T09:01:20.509Z,16.90
2018-12-08T09:03:48.067Z,12.93
2018-12-08T09:06:15.625Z,14.97
2018-12-08T09:08:43.157Z,16.20
2018-12-08T09:11:10.685Z,20.17
2018-12-08T09:13:38.213Z,18.47
2018-12-08T09:16:06.152Z,16.40
2018-12-08T09:18:33.674Z,19.20
2018-12-08T09:21:01.478Z,16.20
2018-12-08T09:23:29.026Z,15.80
2018-12-08T09:25:56.633Z,17.10
2018-12-08T09:28:24.154Z,13.30
2018-12-08T09:30:51.980Z,18.17
2018-12-08T09:33:19.480Z,16.57
2018-12-08T09:35:47.213Z,14.90
2018-12-08T09:38:14.733Z,16.83
2018-12-08T09:40:42.521Z,17.37
2018-12-08T09:43:10.051Z,19.33
2018-12-08T09:45:41.840Z,16.73
2018-12-08T09:48:07.532Z,15.23
2018-12-08T09:50:35.315Z,15.37
2018-12-08T09:53:08.511Z,18.43
2018-12-08T09:55:36.020Z,18.23
2018-12-08T09:58:04.440Z,16.33
2018-12-08T10:00:31.948Z,17.47
2018-12-08T10:02:59.465Z,13.33
2018-12-08T10:05:26.985Z,14.83
2018-12-08T10:07:54.498Z,15.10
2018-12-08T10:10:22.286Z,16.17
2018-12-08T10:12:49.803Z,17.00
2018-12-08T10:15:17.337Z,16.17
2018-12-08T10:17:44.846Z,12.83
2018-12-08T10:20:12.392Z,18.00
2018-12-08T10:22:39.922Z,17.27
2018-12-08T10:25:07.435Z,13.40
2018-12-08T10:27:34.960Z,14.40
2018-12-08T10:30:02.516Z,16.00
2018-12-08T10:32:30.046Z,13.70
2018-12-08T10:34:57.554Z,8.87
2018-12-08T10:37:25.077Z,13.53
2018-12-08T10:39:52.598Z,10.03
2018-12-08T10:42:20.132Z,12.47
2018-12-08T10:44:47.655Z,13.20
2018-12-08T10:47:15.150Z,11.13
2018-12-08T10:49:42.799Z,10.43
2018-12-08T10:52:10.343Z,13.87
2018-12-08T10:54:37.864Z,15.03
2018-12-08T10:57:05.369Z,14.63
2018-12-08T10:59:32.879Z,10.43
2018-12-08T11:02:01.514Z,14.27
2018-12-08T11:04:29.016Z,14.83
2018-12-08T11:06:56.529Z,15.30
2018-12-08T11:09:24.038Z,16.43
2018-12-08T11:11:51.557Z,15.93
2018-12-08T11:14:19.362Z,18.97
2018-12-08T11:16:46.858Z,14.27
2018-12-08T11:19:14.370Z,15.57
2018-12-08T11:21:41.969Z,21.77
2018-12-08T11:24:09.481Z,19.50
2018-12-08T11:26:36.990Z,18.10
2018-12-08T11:29:04.531Z,20.83
2018-12-08T11:31:32.047Z,21.73
2018-12-08T11:33:59.560Z,21.90
2018-12-08T11:36:27.073Z,21.43
2018-12-08T11:38:54.585Z,25.53
2018-12-08T11:41:22.097Z,16.47
2018-12-08T11:43:49.771Z,24.27
2018-12-08T11:46:17.370Z,22.07
2018-12-08T11:48:44.899Z,19.27
2018-12-08T11:51:12.405Z,19.43
2018-12-08T11:53:39.935Z,21.67
2018-12-08T11:56:07.454Z,20.70
2018-12-08T11:58:36.166Z,18.90
2018-12-08T12:01:03.856Z,21.17
2018-12-08T12:03:31.384Z,18.73
2018-12-08T12:05:58.908Z,17.47
2018-12-08T12:08:26.433Z,23.13
2018-12-08T12:10:53.943Z,21.23
2018-12-08T12:13:21.474Z,26.37
2018-12-08T12:15:49.001Z,23.93
2018-12-08T12:18:16.515Z,21.10
2018-12-08T12:20:44.029Z,22.80
2018-12-08T12:23:11.538Z,19.47
2018-12-08T12:25:42.095Z,21.97
2018-12-08T12:28:11.223Z,20.90
2018-12-08T12:30:38.917Z,20.20
2018-12-08T12:33:06.569Z,19.37
2018-12-08T12:35:34.083Z,28.87
2018-12-08T12:38:01.601Z,22.37
2018-12-08T12:40:29.110Z,26.80
2018-12-08T12:42:56.628Z,23.37
2018-12-08T12:45:24.358Z,21.80
2018-12-08T12:47:51.879Z,21.93
2018-12-08T12:50:19.417Z,25.70
2018-12-08T12:52:46.999Z,23.90
2018-12-08T12:55:14.566Z,22.73
2018-12-08T12:57:42.088Z,24.07
2018-12-08T13:00:11.159Z,21.80
2018-12-08T13:02:38.680Z,24.53
2018-12-08T13:05:06.644Z,20.27
2018-12-08T13:07:34.150Z,20.10
2018-12-08T13:10:01.677Z,26.77
2018-12-08T13:12:29.188Z,26.90
2018-12-08T13:14:56.722Z,19.27
2018-12-08T13:17:24.257Z,16.97
2018-12-08T13:19:51.840Z,24.87
2018-12-08T13:22:19.363Z,23.60
2018-12-08T13:24:46.869Z,27.13
2018-12-08T13:27:14.375Z,23.30
2018-12-08T13:29:41.885Z,21.60
2018-12-08T13:32:09.395Z,21.43
2018-12-08T13:34:37.093Z,24.17
2018-12-08T13:37:04.691Z,17.13
2018-12-08T13:39:32.210Z,21.17
2018-12-08T13:41:59.729Z,31.37
2018-12-08T13:44:35.868Z,18.70
2018-12-08T13:47:03.385Z,20.77
2018-12-08T13:49:30.897Z,19.40
2018-12-08T13:51:58.402Z,21.07
2018-12-08T13:54:47.224Z,21.87
2018-12-08T13:57:14.751Z,19.20
2018-12-08T13:59:46.224Z,16.63
2018-12-08T14:02:13.748Z,14.63
2018-12-08T14:04:41.286Z,14.30
2018-12-08T14:07:08.921Z,13.57
2018-12-08T14:09:36.555Z,16.50
2018-12-08T14:12:04.480Z,15.63
2018-12-08T14:14:31.986Z,13.37
2018-12-08T14:17:02.969Z,17.73
2018-12-08T14:19:30.606Z,21.17
2018-12-08T14:21:58.450Z,20.30
2018-12-08T14:24:25.966Z,21.30
2018-12-08T14:26:54.180Z,18.00
2018-12-08T14:29:21.686Z,19.63
2018-12-08T14:31:49.567Z,21.57
2018-12-08T14:34:17.357Z,20.53
2018-12-08T14:36:44.898Z,18.47
2018-12-08T14:39:12.422Z,18.47
2018-12-08T14:41:40.027Z,20.57
2018-12-08T14:44:07.630Z,19.97
2018-12-08T14:46:35.136Z,20.13
2018-12-08T14:49:03.131Z,18.57
2018-12-08T14:51:30.690Z,19.83
2018-12-08T14:54:01.018Z,15.43
2018-12-08T14:56:28.607Z,17.57
2018-12-08T14:58:56.106Z,14.47
2018-12-08T15:01:23.609Z,10.70
2018-12-08T15:03:52.046Z,21.80
2018-12-08T15:06:19.548Z,8.93
2018-12-08T15:08:47.088Z,16.43
2018-12-08T15:11:14.596Z,12.20
2018-12-08T15:13:42.120Z,18.20
2018-12-08T15:16:09.687Z,13.93
2018-12-08T15:18:37.222Z,17.00
2018-12-08T15:21:04.753Z,12.57
2018-12-08T15:23:32.272Z,14.63
2018-12-08T15:25:59.778Z,13.37
2018-12-08T15:28:27.301Z,13.00
2018-12-08T15:30:54.823Z,11.90
2018-12-08T15:33:22.341Z,10.07
2018-12-08T15:35:49.850Z,5.33
2018-12-08T15:38:17.394Z,11.73
2018-12-08T15:40:44.922Z,5.37
2018-12-08T15:43:12.426Z,6.17
2018-12-08T15:45:39.958Z,8.93
2018-12-08T15:48:07.709Z,6.70
2018-12-08T15:50:35.228Z,7.60
2018-12-08T15:53:02.775Z,6.13
2018-12-08T15:55:30.299Z,5.27
2018-12-08T15:57:57.896Z,7.33
2018-12-08T16:00:25.412Z,7.70
2018-12-08T16:02:53.026Z,9.87
2018-12-08T16:05:20.532Z,7.63
2018-12-08T16:07:48.061Z,8.13
2018-12-08T16:10:15.585Z,6.37
2018-12-08T16:12:43.121Z,7.30
2018-12-08T16:15:10.635Z,8.60
2018-12-08T16:17:38.128Z,6.17
2018-12-08T16:20:08.567Z,7.23
2018-12-08T16:22:36.130Z,5.70
2018-12-08T16:25:04.091Z,8.27
2018-12-08T16:27:31.677Z,4.67
2018-12-08T16:29:59.198Z,4.70
2018-12-08T16:32:26.709Z,6.13
2018-12-08T16:34:54.245Z,6.30
2018-12-08T16:37:21.749Z,5.77
2018-12-08T16:39:49.291Z,5.40
2018-12-08T16:42:16.795Z,7.40
2018-12-08T16:44:44.838Z,4.63
2018-12-08T16:47:12.345Z,4.63
2018-12-08T16:49:39.853Z,5.20
2018-12-08T16:52:07.383Z,7.13
2018-12-08T16:54:34.999Z,4.70
2018-12-08T16:57:02.510Z,5.03
2018-12-08T16:59:30.063Z,7.53
2018-12-08T17:01:57.652Z,5.73
2018-12-08T17:04:25.160Z,5.67
2018-12-08T17:06:52.687Z,6.23
2018-12-08T17:09:20.280Z,7.57
2018-12-08T17:11:47.792Z,4.73
2018-12-08T17:14:15.299Z,5.23
2018-12-08T17:16:42.819Z,4.27
2018-12-08T17:19:10.329Z,5.80
2018-12-08T17:21:37.829Z,6.97
2018-12-08T17:24:05.449Z,7.90
2018-12-08T17:26:32.949Z,8.13
2018-12-08T17:29:00.476Z,6.63
2018-12-08T17:31:27.993Z,8.90
2018-12-08T17:33:55.515Z,10.60
2018-12-08T17:36:23.023Z,6.80
2018-12-08T17:38:50.601Z,4.27
2018-12-08T17:41:18.101Z,5.43
2018-12-08T17:43:45.609Z,7.03
2018-12-08T17:46:13.122Z,8.77
2018-12-08T17:48:40.637Z,10.00
2018-12-08T17:51:08.135Z,6.87
2018-12-08T17:53:35.652Z,4.93
2018-12-08T17:56:03.158Z,5.13
2018-12-08T17:58:30.676Z,6.83
2018-12-08T18:01:00.399Z,6.20
2018-12-08T18:03:28.076Z,3.27
2018-12-08T18:05:55.725Z,2.60
2018-12-08T18:08:23.249Z,4.13
2018-12-08T18:10:50.762Z,4.17
2018-12-08T18:13:18.472Z,3.73
2018-12-08T18:15:46.441Z,3.03
2018-12-08T18:18:32.058Z,2.47
2018-12-08T18:21:00.444Z,4.03
2018-12-08T18:23:28.123Z,1.90
2018-12-08T18:25:55.646Z,2.37
2018-12-08T18:28:23.272Z,2.97
2018-12-08T18:30:50.778Z,2.03
2018-12-08T18:33:18.291Z,2.70
2018-12-08T18:35:45.806Z,3.80
2018-12-08T18:38:13.338Z,2.73
2018-12-08T18:40:40.848Z,4.13
2018-12-08T18:43:08.476Z,6.70
2018-12-08T18:45:35.976Z,7.63
2018-12-08T18:48:03.485Z,6.40
2018-12-08T18:50:31.053Z,6.23
2018-12-08T18:52:58.570Z,4.43
2018-12-08T18:55:26.104Z,5.23
2018-12-08T18:57:53.773Z,6.07
2018-12-08T19:00:21.507Z,4.90
2018-12-08T19:02:52.340Z,6.63
2018-12-08T19:05:20.036Z,5.13
2018-12-08T19:07:47.572Z,7.40
2018-12-08T19:10:15.135Z,8.37
2018-12-08T19:12:42.739Z,10.97
2018-12-08T19:15:10.265Z,10.33
2018-12-08T19:17:37.788Z,10.70
2018-12-08T19:20:05.967Z,9.90
2018-12-08T19:22:34.000Z,11.23
2018-12-08T19:25:01.685Z,6.70
2018-12-08T19:27:29.193Z,9.50
2018-12-08T19:29:56.789Z,8.50
2018-12-08T19:32:24.319Z,7.97
2018-12-08T19:34:51.953Z,12.13
2018-12-08T19:37:19.550Z,11.43
2018-12-08T19:39:47.050Z,11.63
2018-12-08T19:42:14.552Z,9.67
2018-12-08T19:44:42.061Z,9.13
2018-12-08T19:47:09.680Z,9.30
2018-12-08T19:49:37.366Z,15.27
2018-12-08T19:52:04.891Z,15.33
2018-12-08T19:54:32.406Z,15.63
2018-12-08T19:56:59.928Z,14.07
2018-12-08T19:59:27.551Z,15.70
2018-12-08T20:01:55.078Z,18.43
2018-12-08T20:04:22.600Z,18.57
2018-12-08T20:06:50.120Z,17.43
2018-12-08T20:09:17.632Z,19.67
2018-12-08T20:11:45.152Z,18.50
2018-12-08T20:14:12.874Z,25.70
2018-12-08T20:16:40.385Z,25.23
2018-12-08T20:19:07.890Z,22.37
2018-12-08T20:21:35.733Z,25.70
2018-12-08T20:24:03.342Z,24.70
2018-12-08T20:26:30.852Z,25.97
2018-12-08T20:28:58.366Z,27.03
2018-12-08T20:31:25.877Z,24.83
2018-12-08T20:33:53.412Z,20.13
2018-12-08T20:36:20.922Z,24.00
2018-12-08T20:38:48.432Z,23.60
2018-12-08T20:41:15.944Z,23.97
2018-12-08T20:43:43.464Z,22.57
2018-12-08T20:46:10.986Z,28.93
2018-12-08T20:48:38.519Z,27.17
2018-12-08T20:51:06.034Z,28.50
2018-12-08T20:53:33.614Z,28.97
2018-12-08T20:56:01.235Z,25.17
2018-12-08T20:58:29.413Z,25.93
2018-12-08T21:00:57.038Z,29.27
2018-12-08T21:03:24.560Z,27.37
2018-12-08T21:05:52.178Z,27.73
2018-12-08T21:08:19.723Z,30.83
2018-12-08T21:10:47.256Z,33.00
2018-12-08T21:13:14.766Z,27.03
2018-12-08T21:15:43.324Z,30.40
2018-12-08T21:18:10.862Z,25.23
2018-12-08T21:20:38.538Z,31.47
2018-12-08T21:23:07.438Z,30.40
2018-12-08T21:25:34.957Z,35.47
2018-12-08T21:28:04.349Z,26.07
2018-12-08T21:30:31.886Z,21.97
2018-12-08T21:32:59.412Z,31.73
2018-12-08T21:35:26.983Z,31.23
2018-12-08T21:37:54.514Z,27.17
2018-12-08T21:40:24.970Z,28.43
2018-12-08T21:42:52.472Z,31.07
2018-12-08T21:45:19.986Z,27.13
2018-12-08T21:47:47.493Z,23.73
2018-12-08T21:50:14.994Z,23.80
2018-12-08T21:52:42.508Z,26.73
2018-12-08T21:55:10.032Z,21.17
2018-12-08T21:57:37.560Z,17.23
2018-12-08T22:00:07.202Z,16.50
2018-12-08T22:02:34.715Z,19.33
2018-12-08T22:05:02.226Z,17.33
2018-12-08T22:07:29.732Z,21.20
2018-12-08T22:09:57.254Z,20.40
2018-12-08T22:12:24.803Z,17.37
2018-12-08T22:14:58.635Z,20.80
2018-12-08T22:17:26.626Z,18.43
2018-12-08T22:19:54.140Z,24.20
2018-12-08T22:22:21.649Z,16.73
2018-12-08T22:24:49.150Z,20.87
2018-12-08T22:27:16.666Z,16.93
2018-12-08T22:29:44.177Z,15.43
2018-12-08T22:32:11.682Z,15.57
2018-12-08T22:34:39.233Z,19.17
2018-12-08T22:37:06.915Z,24.27
2018-12-08T22:39:34.432Z,20.37
2018-12-08T22:42:02.018Z,21.93
2018-12-08T22:44:29.539Z,26.93
2018-12-08T22:46:57.081Z,19.40
2018-12-08T22:49:24.884Z,23.03
2018-12-08T22:51:52.507Z,24.27
2018-12-08T22:54:20.011Z,23.50
2018-12-08T22:56:47.625Z,20.30
2018-12-08T22:59:15.157Z,27.77
2018-12-08T23:01:42.679Z,21.00
2018-12-08T23:04:10.197Z,20.07
2018-12-08T23:06:37.783Z,22.50
2018-12-08T23:09:05.485Z,21.20
2018-12-08T23:11:33.025Z,17.13
2018-12-08T23:14:00.559Z,21.57
2018-12-08T23:16:28.276Z,19.00
2018-12-08T23:18:55.805Z,20.53
2018-12-08T23:21:23.315Z,23.40
2018-12-08T23:23:50.859Z,19.30
2018-12-08T23:26:18.399Z,22.63
2018-12-08T23:28:46.009Z,17.47
2018-12-08T23:31:13.520Z,29.37
2018-12-08T23:33:41.135Z,21.47
2018-12-08T23:36:08.753Z,21.90
2018-12-08T23:38:36.261Z,21.50
2018-12-08T23:41:03.760Z,24.47
2018-12-08T23:43:31.282Z,22.90
2018-12-08T23:45:58.817Z,25.57
2018-12-08T23:48:26.341Z,22.93
2018-12-08T23:50:53.938Z,21.57
2018-12-08T23:53:21.605Z,24.87
2018-12-08T23:55:49.235Z,24.50
2018-12-08T23:58:16.755Z,24.67
